NASA859 KORL-KCLT
Flight info
| Callsign | NASA859 |
|---|---|
| Flight time | 0h 55m |
| Altitude | 55000 |
| Route | NYTES2 NYTES WORMS GUANO BKENI VIYAP Q87 JROSS FLO RASLN3 |
| Aircraft | X59/H-SDGHITUY/LB2 |
Departure
| Time | 2026-05-05 00:58 |
|---|---|
| Airport | Orlando Executive Airport (KORL) |
Arrival
| Time | 2026-05-05 01:53 |
|---|---|
| Airport | Charlotte Douglas International Airport (KCLT) |
| Time | Latitude | Longitude | Altitude | Speed | Heading |
|---|---|---|---|---|---|
| 2026-05-05 00:40 | 28.54610 | -81.33634 | 105 ft | 0 kts | 127° |
| 2026-05-05 00:43 | 28.54595 | -81.33612 | 106 ft | 5 kts | 133° |
| 2026-05-05 00:43 | 28.54564 | -81.33607 | 105 ft | 8 kts | 212° |
| 2026-05-05 00:44 | 28.54529 | -81.33678 | 103 ft | 7 kts | 245° |
| 2026-05-05 00:44 | 28.54510 | -81.33721 | 103 ft | 4 kts | 243° |
| 2026-05-05 00:44 | 28.54494 | -81.33755 | 103 ft | 8 kts | 246° |
| 2026-05-05 00:44 | 28.54469 | -81.33815 | 103 ft | 8 kts | 232° |
| 2026-05-05 00:45 | 28.54444 | -81.33849 | 103 ft | 4 kts | 231° |
| 2026-05-05 00:45 | 28.54434 | -81.33865 | 103 ft | 0 kts | 236° |
| 2026-05-05 00:45 | 28.54430 | -81.33884 | 103 ft | 4 kts | 262° |
| 2026-05-05 00:45 | 28.54428 | -81.33903 | 103 ft | 0 kts | 262° |
| 2026-05-05 00:46 | 28.54427 | -81.33920 | 103 ft | 6 kts | 269° |
| 2026-05-05 00:46 | 28.54420 | -81.33948 | 103 ft | 1 kts | 230° |
| 2026-05-05 00:46 | 28.54412 | -81.33957 | 103 ft | 0 kts | 211° |
| 2026-05-05 00:47 | 28.54398 | -81.33961 | 103 ft | 5 kts | 196° |
| 2026-05-05 00:47 | 28.54378 | -81.33961 | 103 ft | 3 kts | 169° |
| 2026-05-05 00:47 | 28.54358 | -81.33956 | 103 ft | 0 kts | 167° |
| 2026-05-05 00:56 | 28.54351 | -81.33954 | 103 ft | 4 kts | 166° |
| 2026-05-05 00:56 | 28.54299 | -81.33918 | 103 ft | 14 kts | 122° |
| 2026-05-05 00:57 | 28.54303 | -81.33872 | 103 ft | 0 kts | 68° |
| 2026-05-05 00:57 | 28.54305 | -81.33867 | 103 ft | 0 kts | 66° |
| 2026-05-05 00:57 | 28.54305 | -81.33866 | 103 ft | 0 kts | 66° |
| 2026-05-05 00:58 | 28.54538 | -81.33255 | 106 ft | 189 kts | 67° |
| 2026-05-05 00:58 | 28.55231 | -81.31384 | 919 ft | 289 kts | 67° |
| 2026-05-05 00:58 | 28.56015 | -81.29263 | 1256 ft | 328 kts | 67° |
| 2026-05-05 00:58 | 28.56870 | -81.26974 | 1256 ft | 292 kts | 65° |
| 2026-05-05 00:59 | 28.58017 | -81.25207 | 1463 ft | 278 kts | 47° |
| 2026-05-05 00:59 | 28.59403 | -81.23511 | 1503 ft | 298 kts | 46° |
| 2026-05-05 00:59 | 28.61128 | -81.22163 | 1599 ft | 309 kts | 21° |
| 2026-05-05 00:59 | 28.63249 | -81.21791 | 2075 ft | 308 kts | 356° |
| 2026-05-05 01:00 | 28.65401 | -81.22079 | 2658 ft | 308 kts | 353° |
| 2026-05-05 01:00 | 28.67521 | -81.22375 | 3232 ft | 311 kts | 353° |
| 2026-05-05 01:00 | 28.69660 | -81.22673 | 3805 ft | 315 kts | 353° |
| 2026-05-05 01:00 | 28.71829 | -81.22975 | 4380 ft | 319 kts | 353° |
| 2026-05-05 01:01 | 28.74040 | -81.23283 | 4898 ft | 326 kts | 353° |
| 2026-05-05 01:01 | 28.76314 | -81.23799 | 4993 ft | 344 kts | 338° |
| 2026-05-05 01:01 | 28.78466 | -81.25005 | 5624 ft | 350 kts | 334° |
| 2026-05-05 01:01 | 28.80657 | -81.26250 | 6209 ft | 352 kts | 334° |
| 2026-05-05 01:02 | 28.82700 | -81.27409 | 6846 ft | 353 kts | 334° |
| 2026-05-05 01:02 | 28.84900 | -81.28657 | 7553 ft | 353 kts | 334° |
| 2026-05-05 01:02 | 28.87092 | -81.29901 | 8301 ft | 352 kts | 334° |
| 2026-05-05 01:02 | 28.89286 | -81.31145 | 9051 ft | 350 kts | 334° |
| 2026-05-05 01:03 | 28.91436 | -81.32365 | 9789 ft | 348 kts | 334° |
| 2026-05-05 01:03 | 28.93604 | -81.33595 | 10539 ft | 344 kts | 334° |
| 2026-05-05 01:03 | 28.95731 | -81.34802 | 11332 ft | 351 kts | 334° |
| 2026-05-05 01:03 | 28.97954 | -81.36063 | 12651 ft | 370 kts | 334° |
| 2026-05-05 01:04 | 29.00330 | -81.37399 | 13942 ft | 389 kts | 335° |
| 2026-05-05 01:04 | 29.05862 | -81.38421 | 16467 ft | 430 kts | 355° |
| 2026-05-05 01:04 | 29.08930 | -81.38722 | 17762 ft | 450 kts | 355° |
| 2026-05-05 01:05 | 29.12113 | -81.38636 | 19029 ft | 481 kts | 4° |
| 2026-05-05 01:05 | 29.15620 | -81.38375 | 20346 ft | 519 kts | 4° |
| 2026-05-05 01:05 | 29.19280 | -81.38092 | 21629 ft | 541 kts | 4° |
| 2026-05-05 01:05 | 29.23094 | -81.37795 | 22897 ft | 562 kts | 4° |
| 2026-05-05 01:06 | 29.26984 | -81.37493 | 24134 ft | 564 kts | 4° |
| 2026-05-05 01:06 | 29.30843 | -81.37192 | 25365 ft | 562 kts | 4° |
| 2026-05-05 01:06 | 29.34731 | -81.36888 | 26615 ft | 558 kts | 4° |
| 2026-05-05 01:06 | 29.38611 | -81.36570 | 29574 ft | 575 kts | 4° |
| 2026-05-05 01:07 | 29.42397 | -81.36240 | 33639 ft | 566 kts | 4° |
| 2026-05-05 01:07 | 29.46204 | -81.35914 | 37261 ft | 568 kts | 4° |
| 2026-05-05 01:07 | 29.50162 | -81.35616 | 39649 ft | 592 kts | 4° |
| 2026-05-05 01:07 | 29.54412 | -81.35298 | 40884 ft | 632 kts | 4° |
| 2026-05-05 01:08 | 29.58850 | -81.34956 | 42156 ft | 662 kts | 4° |
| 2026-05-05 01:08 | 29.63517 | -81.34631 | 43395 ft | 693 kts | 1° |
| 2026-05-05 01:08 | 29.68470 | -81.34859 | 44695 ft | 732 kts | 358° |
| 2026-05-05 01:08 | 29.73636 | -81.35134 | 46358 ft | 764 kts | 358° |
| 2026-05-05 01:09 | 29.78791 | -81.35388 | 50149 ft | 759 kts | 357° |
| 2026-05-05 01:09 | 29.83981 | -81.35677 | 53632 ft | 752 kts | 357° |
| 2026-05-05 01:09 | 29.89203 | -81.35965 | 54556 ft | 777 kts | 357° |
| 2026-05-05 01:09 | 29.94719 | -81.36273 | 54813 ft | 802 kts | 357° |
| 2026-05-05 01:10 | 30.00330 | -81.36586 | 54989 ft | 825 kts | 357° |
| 2026-05-05 01:10 | 30.06157 | -81.36910 | 54999 ft | 845 kts | 357° |
| 2026-05-05 01:10 | 30.12058 | -81.37238 | 54989 ft | 863 kts | 357° |
| 2026-05-05 01:10 | 30.18082 | -81.37573 | 54996 ft | 877 kts | 357° |
| 2026-05-05 01:11 | 30.24267 | -81.37917 | 55005 ft | 889 kts | 357° |
| 2026-05-05 01:11 | 30.30386 | -81.38256 | 55002 ft | 876 kts | 357° |
| 2026-05-05 01:11 | 30.36411 | -81.38591 | 55005 ft | 865 kts | 357° |
| 2026-05-05 01:11 | 30.42392 | -81.38923 | 55000 ft | 855 kts | 357° |
| 2026-05-05 01:12 | 30.54166 | -81.39578 | 54999 ft | 839 kts | 357° |
| 2026-05-05 01:12 | 30.65760 | -81.40225 | 54999 ft | 827 kts | 357° |
| 2026-05-05 01:13 | 30.77233 | -81.40866 | 54999 ft | 820 kts | 357° |
| 2026-05-05 01:13 | 30.88551 | -81.41499 | 55000 ft | 815 kts | 357° |
| 2026-05-05 01:14 | 30.99927 | -81.42137 | 55000 ft | 811 kts | 357° |
| 2026-05-05 01:14 | 31.11204 | -81.42771 | 55000 ft | 809 kts | 357° |
| 2026-05-05 01:15 | 31.22465 | -81.42945 | 54977 ft | 804 kts | 8° |
| 2026-05-05 01:15 | 31.27937 | -81.41449 | 54993 ft | 802 kts | 19° |
| 2026-05-05 01:15 | 31.33164 | -81.38836 | 55095 ft | 799 kts | 24° |
| 2026-05-05 01:16 | 31.43288 | -81.33472 | 54997 ft | 801 kts | 24° |
| 2026-05-05 01:16 | 31.53503 | -81.28010 | 55002 ft | 802 kts | 25° |
| 2026-05-05 01:17 | 31.63659 | -81.22539 | 54999 ft | 803 kts | 25° |
| 2026-05-05 01:17 | 31.73866 | -81.17007 | 55000 ft | 804 kts | 25° |
| 2026-05-05 01:18 | 31.84108 | -81.11430 | 55000 ft | 804 kts | 25° |
| 2026-05-05 01:18 | 31.94213 | -81.05904 | 55000 ft | 805 kts | 25° |
| 2026-05-05 01:19 | 32.04411 | -81.00269 | 54926 ft | 807 kts | 25° |
| 2026-05-05 01:19 | 32.09509 | -80.97424 | 54510 ft | 812 kts | 25° |
| 2026-05-05 01:19 | 32.14529 | -80.94618 | 54145 ft | 817 kts | 25° |
| 2026-05-05 01:20 | 32.19690 | -80.91730 | 53776 ft | 820 kts | 25° |
| 2026-05-05 01:20 | 32.24626 | -80.88963 | 53423 ft | 824 kts | 25° |
| 2026-05-05 01:20 | 32.29681 | -80.86124 | 53062 ft | 826 kts | 25° |
| 2026-05-05 01:20 | 32.34868 | -80.83209 | 52693 ft | 829 kts | 25° |
| 2026-05-05 01:21 | 32.40049 | -80.80291 | 52325 ft | 832 kts | 25° |
| 2026-05-05 01:21 | 32.45269 | -80.77348 | 51955 ft | 834 kts | 25° |
| 2026-05-05 01:21 | 32.50532 | -80.74377 | 51583 ft | 836 kts | 25° |
| 2026-05-05 01:21 | 32.55765 | -80.71418 | 51214 ft | 838 kts | 25° |
| 2026-05-05 01:22 | 32.61002 | -80.68453 | 50845 ft | 840 kts | 25° |
| 2026-05-05 01:22 | 32.66260 | -80.65472 | 50476 ft | 842 kts | 25° |
| 2026-05-05 01:22 | 32.71531 | -80.62457 | 50100 ft | 844 kts | 27° |
| 2026-05-05 01:22 | 32.76678 | -80.59244 | 49745 ft | 845 kts | 27° |
| 2026-05-05 01:23 | 32.81961 | -80.55935 | 49222 ft | 849 kts | 27° |
| 2026-05-05 01:23 | 32.87204 | -80.52647 | 48541 ft | 854 kts | 27° |
| 2026-05-05 01:23 | 32.92453 | -80.49351 | 47875 ft | 858 kts | 27° |
| 2026-05-05 01:23 | 32.97768 | -80.46008 | 47204 ft | 861 kts | 27° |
| 2026-05-05 01:24 | 33.03025 | -80.42699 | 46542 ft | 864 kts | 27° |
| 2026-05-05 01:24 | 33.08361 | -80.39333 | 45872 ft | 867 kts | 27° |
| 2026-05-05 01:24 | 33.13308 | -80.36211 | 45036 ft | 871 kts | 27° |
| 2026-05-05 01:24 | 33.18692 | -80.32808 | 44151 ft | 874 kts | 28° |
| 2026-05-05 01:25 | 33.24018 | -80.29436 | 43271 ft | 872 kts | 28° |
| 2026-05-05 01:25 | 33.29246 | -80.26122 | 42399 ft | 863 kts | 28° |
| 2026-05-05 01:25 | 33.34485 | -80.22797 | 41513 ft | 849 kts | 28° |
| 2026-05-05 01:25 | 33.39607 | -80.19541 | 40631 ft | 831 kts | 28° |
| 2026-05-05 01:26 | 33.44526 | -80.16411 | 39959 ft | 807 kts | 28° |
| 2026-05-05 01:26 | 33.49291 | -80.13374 | 39302 ft | 784 kts | 28° |
| 2026-05-05 01:26 | 33.53988 | -80.10377 | 38686 ft | 761 kts | 28° |
| 2026-05-05 01:26 | 33.58612 | -80.07423 | 38065 ft | 739 kts | 28° |
| 2026-05-05 01:27 | 33.63039 | -80.04592 | 37448 ft | 718 kts | 28° |
| 2026-05-05 01:27 | 33.67385 | -80.01809 | 36827 ft | 695 kts | 28° |
| 2026-05-05 01:27 | 33.71590 | -79.99113 | 36221 ft | 672 kts | 28° |
| 2026-05-05 01:27 | 33.75716 | -79.96465 | 35602 ft | 652 kts | 28° |
| 2026-05-05 01:28 | 33.79670 | -79.93925 | 35070 ft | 636 kts | 28° |
| 2026-05-05 01:28 | 33.83537 | -79.91438 | 34975 ft | 627 kts | 28° |
| 2026-05-05 01:28 | 33.91177 | -79.86517 | 34444 ft | 626 kts | 28° |
| 2026-05-05 01:29 | 33.94900 | -79.84115 | 33912 ft | 594 kts | 28° |
| 2026-05-05 01:29 | 33.98471 | -79.81808 | 33356 ft | 575 kts | 28° |
| 2026-05-05 01:29 | 34.01978 | -79.79542 | 32791 ft | 573 kts | 28° |
| 2026-05-05 01:29 | 34.05312 | -79.77385 | 31483 ft | 536 kts | 28° |
| 2026-05-05 01:30 | 34.08538 | -79.75296 | 30418 ft | 523 kts | 28° |
| 2026-05-05 01:30 | 34.11669 | -79.73267 | 29464 ft | 511 kts | 28° |
| 2026-05-05 01:30 | 34.14746 | -79.71271 | 28501 ft | 499 kts | 28° |
| 2026-05-05 01:30 | 34.17776 | -79.69378 | 27511 ft | 488 kts | 23° |
| 2026-05-05 01:31 | 34.21028 | -79.68457 | 26288 ft | 480 kts | 4° |
| 2026-05-05 01:31 | 34.24303 | -79.68816 | 25007 ft | 475 kts | 346° |
| 2026-05-05 01:31 | 34.27261 | -79.70373 | 23726 ft | 469 kts | 327° |
| 2026-05-05 01:31 | 34.29754 | -79.72854 | 22481 ft | 464 kts | 318° |
| 2026-05-05 01:32 | 34.32104 | -79.75397 | 21244 ft | 460 kts | 318° |
| 2026-05-05 01:32 | 34.34429 | -79.77929 | 19341 ft | 475 kts | 318° |
| 2026-05-05 01:32 | 34.36863 | -79.80597 | 15992 ft | 505 kts | 317° |
| 2026-05-05 01:32 | 34.39399 | -79.83360 | 14883 ft | 487 kts | 318° |
| 2026-05-05 01:33 | 34.41824 | -79.86005 | 13892 ft | 467 kts | 318° |
| 2026-05-05 01:33 | 34.44134 | -79.88530 | 13797 ft | 431 kts | 318° |
| 2026-05-05 01:33 | 34.46267 | -79.90864 | 13670 ft | 399 kts | 318° |
| 2026-05-05 01:33 | 34.48172 | -79.92950 | 13545 ft | 372 kts | 318° |
| 2026-05-05 01:34 | 34.50043 | -79.95001 | 13414 ft | 345 kts | 318° |
| 2026-05-05 01:34 | 34.51724 | -79.96844 | 13288 ft | 321 kts | 318° |
| 2026-05-05 01:34 | 34.53382 | -79.98663 | 13106 ft | 327 kts | 318° |
| 2026-05-05 01:34 | 34.55085 | -80.00533 | 12872 ft | 336 kts | 318° |
| 2026-05-05 01:35 | 34.56831 | -80.02451 | 12632 ft | 334 kts | 318° |
| 2026-05-05 01:35 | 34.58508 | -80.04296 | 12379 ft | 334 kts | 318° |
| 2026-05-05 01:35 | 34.60210 | -80.06169 | 12133 ft | 330 kts | 318° |
| 2026-05-05 01:35 | 34.61874 | -80.08001 | 11883 ft | 329 kts | 318° |
| 2026-05-05 01:36 | 34.63545 | -80.09842 | 11634 ft | 327 kts | 318° |
| 2026-05-05 01:36 | 34.65229 | -80.11700 | 11383 ft | 326 kts | 318° |
| 2026-05-05 01:36 | 34.66861 | -80.13499 | 11121 ft | 309 kts | 318° |
| 2026-05-05 01:36 | 34.68415 | -80.15215 | 11011 ft | 300 kts | 318° |
| 2026-05-05 01:37 | 34.69957 | -80.16918 | 10997 ft | 294 kts | 318° |
| 2026-05-05 01:37 | 34.71430 | -80.18546 | 10995 ft | 289 kts | 318° |
| 2026-05-05 01:37 | 34.72913 | -80.20186 | 11002 ft | 294 kts | 318° |
| 2026-05-05 01:37 | 34.74441 | -80.21877 | 11004 ft | 299 kts | 318° |
| 2026-05-05 01:38 | 34.76007 | -80.23610 | 11004 ft | 302 kts | 318° |
| 2026-05-05 01:38 | 34.77564 | -80.25333 | 10999 ft | 300 kts | 318° |
| 2026-05-05 01:38 | 34.79080 | -80.27015 | 10998 ft | 299 kts | 318° |
| 2026-05-05 01:38 | 34.80581 | -80.28742 | 10980 ft | 297 kts | 310° |
| 2026-05-05 01:39 | 34.81784 | -80.30753 | 10997 ft | 293 kts | 306° |
| 2026-05-05 01:39 | 34.82956 | -80.32758 | 10998 ft | 292 kts | 306° |
| 2026-05-05 01:39 | 34.84124 | -80.34760 | 10998 ft | 290 kts | 306° |
| 2026-05-05 01:39 | 34.85288 | -80.36757 | 10998 ft | 288 kts | 306° |
| 2026-05-05 01:40 | 34.86466 | -80.38779 | 10998 ft | 286 kts | 306° |
| 2026-05-05 01:40 | 34.87610 | -80.40744 | 10998 ft | 284 kts | 306° |
| 2026-05-05 01:40 | 34.88752 | -80.42706 | 10832 ft | 290 kts | 306° |
| 2026-05-05 01:40 | 34.89946 | -80.44760 | 10661 ft | 295 kts | 306° |
| 2026-05-05 01:41 | 34.91131 | -80.46800 | 10494 ft | 299 kts | 306° |
| 2026-05-05 01:41 | 34.92318 | -80.48845 | 10330 ft | 304 kts | 306° |
| 2026-05-05 01:41 | 34.93532 | -80.50935 | 10164 ft | 309 kts | 306° |
| 2026-05-05 01:41 | 34.94752 | -80.53037 | 10030 ft | 312 kts | 306° |
| 2026-05-05 01:42 | 34.95998 | -80.55186 | 10005 ft | 311 kts | 306° |
| 2026-05-05 01:42 | 34.97253 | -80.57352 | 10000 ft | 310 kts | 306° |
| 2026-05-05 01:42 | 34.98499 | -80.59503 | 9999 ft | 309 kts | 306° |
| 2026-05-05 01:42 | 34.99748 | -80.61662 | 9999 ft | 307 kts | 306° |
| 2026-05-05 01:43 | 35.00969 | -80.63774 | 9999 ft | 306 kts | 306° |
| 2026-05-05 01:43 | 35.02179 | -80.65868 | 9999 ft | 305 kts | 305° |
| 2026-05-05 01:43 | 35.03114 | -80.67487 | 9999 ft | 304 kts | 305° |
| 2026-05-05 01:43 | 35.04335 | -80.69604 | 9999 ft | 303 kts | 305° |
| 2026-05-05 01:44 | 35.05557 | -80.71722 | 9983 ft | 302 kts | 305° |
| 2026-05-05 01:44 | 35.06775 | -80.73835 | 9638 ft | 300 kts | 305° |
| 2026-05-05 01:44 | 35.07964 | -80.75899 | 9287 ft | 298 kts | 305° |
| 2026-05-05 01:44 | 35.09158 | -80.77975 | 8934 ft | 296 kts | 305° |
| 2026-05-05 01:45 | 35.10352 | -80.80051 | 8578 ft | 291 kts | 305° |
| 2026-05-05 01:45 | 35.11492 | -80.82036 | 8230 ft | 287 kts | 305° |
| 2026-05-05 01:45 | 35.12616 | -80.83991 | 7877 ft | 283 kts | 305° |
| 2026-05-05 01:45 | 35.13742 | -80.85953 | 7522 ft | 279 kts | 305° |
| 2026-05-05 01:46 | 35.14852 | -80.87888 | 7167 ft | 276 kts | 305° |
| 2026-05-05 01:46 | 35.15980 | -80.89748 | 6794 ft | 273 kts | 314° |
| 2026-05-05 01:46 | 35.17446 | -80.90851 | 6432 ft | 269 kts | 341° |
| 2026-05-05 01:46 | 35.19241 | -80.91011 | 6048 ft | 265 kts | 10° |
| 2026-05-05 01:47 | 35.20934 | -80.90292 | 5706 ft | 262 kts | 22° |
| 2026-05-05 01:47 | 35.22573 | -80.89472 | 5363 ft | 260 kts | 22° |
| 2026-05-05 01:47 | 35.24264 | -80.88624 | 5008 ft | 259 kts | 22° |
| 2026-05-05 01:47 | 35.25902 | -80.87802 | 4662 ft | 258 kts | 22° |
| 2026-05-05 01:48 | 35.27559 | -80.86971 | 4311 ft | 257 kts | 22° |
| 2026-05-05 01:48 | 35.29205 | -80.86146 | 3962 ft | 256 kts | 22° |
| 2026-05-05 01:48 | 35.30851 | -80.85322 | 3612 ft | 255 kts | 22° |
| 2026-05-05 01:48 | 35.32500 | -80.84495 | 3260 ft | 255 kts | 22° |
| 2026-05-05 01:49 | 35.34138 | -80.83693 | 3029 ft | 248 kts | 17° |
| 2026-05-05 01:49 | 35.35755 | -80.83662 | 2981 ft | 244 kts | 345° |
| 2026-05-05 01:49 | 35.37254 | -80.84733 | 2986 ft | 255 kts | 315° |
| 2026-05-05 01:49 | 35.38143 | -80.86570 | 2977 ft | 255 kts | 286° |
| 2026-05-05 01:50 | 35.38219 | -80.88719 | 2995 ft | 255 kts | 263° |
| 2026-05-05 01:50 | 35.37696 | -80.90762 | 2979 ft | 256 kts | 238° |
| 2026-05-05 01:50 | 35.36418 | -80.92240 | 2975 ft | 256 kts | 209° |
| 2026-05-05 01:50 | 35.34729 | -80.92896 | 2853 ft | 263 kts | 193° |
| 2026-05-05 01:51 | 35.32942 | -80.93378 | 2579 ft | 264 kts | 192° |
| 2026-05-05 01:51 | 35.31180 | -80.93851 | 2297 ft | 265 kts | 192° |
| 2026-05-05 01:51 | 35.29400 | -80.94138 | 2089 ft | 254 kts | 178° |
| 2026-05-05 01:51 | 35.27806 | -80.94026 | 1845 ft | 220 kts | 176° |
| 2026-05-05 01:52 | 35.26417 | -80.93916 | 1587 ft | 186 kts | 176° |
| 2026-05-05 01:52 | 35.25113 | -80.93811 | 1344 ft | 196 kts | 176° |
| 2026-05-05 01:52 | 35.23883 | -80.93718 | 1024 ft | 166 kts | 176° |
| 2026-05-05 01:52 | 35.22789 | -80.93630 | 818 ft | 159 kts | 176° |
| 2026-05-05 01:53 | 35.21785 | -80.93554 | 754 ft | 138 kts | 176° |
| 2026-05-05 01:53 | 35.20918 | -80.93481 | 753 ft | 109 kts | 175° |
| 2026-05-05 01:53 | 35.20284 | -80.93428 | 753 ft | 89 kts | 176° |
| 2026-05-05 01:53 | 35.20152 | -80.93401 | 753 ft | 17 kts | 143° |
| 2026-05-05 01:54 | 35.20119 | -80.93292 | 753 ft | 11 kts | 91° |
| 2026-05-05 01:54 | 35.20132 | -80.93227 | 753 ft | 4 kts | 53° |
| 2026-05-05 01:54 | 35.20139 | -80.93220 | 753 ft | 0 kts | 26° |
| 2026-05-05 01:54 | 35.20140 | -80.93219 | 753 ft | 0 kts | 26° |